Time;durP1;ratioP1;P1;durP2;ratioP2;P2;SDS_P1;SDS_P2;PMS_P1;PMS_P2;Temp;Humidity;BMP_temperature;BMP_pressure;BME280_temperature;BME280_humidity;BME280_pressure;Samples;Min_cycle;Max_cycle;Signal;HPM_P1;HPM_P2
2023/12/11 00:11:44;;;;;;;;;;;5.10;99.90;;;;;;2583124;54;19935;31
2023/12/11 00:14:18;;;;;;;;;;;5.20;99.90;;;;;;2585760;54;20660;31
2023/12/11 00:16:52;;;;;;;;;;;5.10;99.90;;;;;;2585589;54;19938;31
2023/12/11 00:37:17;;;;;;;;;;;5.20;99.90;;;;;;2602874;54;19942;31
2023/12/11 00:42:37;;;;;;;;;;;5.40;99.90;;;;;;2585688;54;20057;31
2023/12/11 00:45:10;;;;;;;;;;;5.40;99.90;;;;;;2585403;54;20810;31
2023/12/11 00:47:43;;;;;;;;;;;5.30;99.90;;;;;;2604403;46;19997;31
2023/12/11 00:50:15;;;;;;;;;;;5.30;99.90;;;;;;2585385;54;19946;31
2023/12/11 00:55:42;;;;;;;;;;;5.40;99.90;;;;;;2585783;54;20822;31
2023/12/11 00:58:19;;;;;;;;;;;5.40;99.90;;;;;;2604415;46;20699;31
2023/12/11 01:00:53;;;;;;;;;;;5.20;99.90;;;;;;2585465;54;19949;31
2023/12/11 01:03:32;;;;;;;;;;;5.30;99.90;;;;;;2585665;54;20890;31
2023/12/11 01:06:10;;;;;;;;;;;5.10;99.90;;;;;;2585731;54;20020;31
2023/12/11 01:08:45;;;;;;;;;;;5.20;99.90;;;;;;2604455;46;19934;31
2023/12/11 01:11:21;;;;;;;;;;;5.30;99.90;;;;;;2585374;54;19941;31
2023/12/11 01:13:59;;;;;;;;;;;5.20;99.90;;;;;;2585489;54;19934;31
2023/12/11 01:16:34;;;;;;;;;;;5.40;99.90;;;;;;2585515;54;20850;31
2023/12/11 01:19:10;;;;;;;;;;;5.30;99.90;;;;;;2585709;54;20799;31
2023/12/11 01:21:44;;;;;;;;;;;5.10;99.90;;;;;;2585451;54;20769;31
2023/12/11 01:24:17;;;;;;;;;;;5.10;99.90;;;;;;2585798;54;21834;31
2023/12/11 01:26:50;;;;;;;;;;;8.40;99.90;;;;;;2585930;54;19934;31
2023/12/11 01:29:23;;;;;;;;;;;5.20;99.90;;;;;;2585522;54;19960;31
2023/12/11 01:31:59;;;;;;;;;;;5.20;99.90;;;;;;2585550;54;20021;31
2023/12/11 01:34:32;;;;;;;;;;;5.30;99.90;;;;;;2585660;54;19989;31
2023/12/11 01:37:05;;;;;;;;;;;5.20;99.90;;;;;;2585635;54;20800;31
2023/12/11 01:39:38;;;;;;;;;;;5.10;99.90;;;;;;2585186;54;19939;31
2023/12/11 01:42:11;;;;;;;;;;;5.20;99.90;;;;;;2585493;54;20672;31
2023/12/11 01:44:45;;;;;;;;;;;5.00;99.90;;;;;;2585138;54;20810;31
2023/12/11 01:47:21;;;;;;;;;;;4.80;99.90;;;;;;2585158;54;20040;31
2023/12/11 01:49:55;;;;;;;;;;;5.10;99.90;;;;;;2603623;46;20833;31
2023/12/11 01:52:28;;;;;;;;;;;4.70;99.90;;;;;;2603666;46;19961;31
2023/12/11 01:55:01;;;;;;;;;;;3.30;99.90;;;;;;2585415;54;20768;31
2023/12/11 01:57:35;;;;;;;;;;;4.90;99.90;;;;;;2585217;54;19935;31
2023/12/11 02:00:08;;;;;;;;;;;5.00;99.90;;;;;;2585580;54;19941;31
2023/12/11 02:02:45;;;;;;;;;;;4.90;99.90;;;;;;2585629;54;19941;31
2023/12/11 02:05:17;;;;;;;;;;;5.00;99.90;;;;;;2585551;54;19934;31
2023/12/11 02:07:52;;;;;;;;;;;4.90;99.90;;;;;;2604138;46;19941;31
2023/12/11 02:10:26;;;;;;;;;;;4.90;99.90;;;;;;2603967;46;19941;31
2023/12/11 02:12:59;;;;;;;;;;;4.90;99.90;;;;;;2603655;46;19961;31
2023/12/11 02:15:41;;;;;;;;;;;1.80;99.90;;;;;;2683616;39;21066;31
2023/12/11 02:18:17;;;;;;;;;;;4.70;99.90;;;;;;2585421;54;19935;31
2023/12/11 02:20:50;;;;;;;;;;;4.70;99.90;;;;;;2585052;54;20729;31
2023/12/11 02:23:23;;;;;;;;;;;4.70;99.90;;;;;;2604298;46;21871;31
2023/12/11 02:26:04;;;;;;;;;;;4.50;99.90;;;;;;2683639;39;21009;31
2023/12/11 02:28:36;;;;;;;;;;;4.70;99.90;;;;;;2683514;39;22163;31
2023/12/11 02:31:10;;;;;;;;;;;4.70;99.90;;;;;;2585689;54;20702;31
2023/12/11 02:33:43;;;;;;;;;;;4.80;99.90;;;;;;2585334;54;19934;31
2023/12/11 02:36:16;;;;;;;;;;;4.90;99.90;;;;;;2585607;54;20834;31
2023/12/11 02:38:49;;;;;;;;;;;4.90;99.90;;;;;;2585229;54;19935;31
2023/12/11 02:41:24;;;;;;;;;;;4.80;99.90;;;;;;2585663;54;19940;31
2023/12/11 02:43:59;;;;;;;;;;;4.80;99.90;;;;;;2585502;54;19941;31
2023/12/11 02:46:32;;;;;;;;;;;4.90;99.90;;;;;;2585534;54;19934;31
2023/12/11 02:49:06;;;;;;;;;;;4.90;99.90;;;;;;2585131;54;20040;31
2023/12/11 02:51:39;;;;;;;;;;;4.90;99.90;;;;;;2584884;54;20748;31
2023/12/11 02:54:12;;;;;;;;;;;4.80;99.90;;;;;;2602972;46;20911;31
2023/12/11 02:56:48;;;;;;;;;;;4.60;99.90;;;;;;2585203;54;19941;31
2023/12/11 02:59:21;;;;;;;;;;;4.80;99.90;;;;;;2585607;54;20736;31
2023/12/11 03:01:53;;;;;;;;;;;4.90;99.90;;;;;;2585471;54;20825;31
2023/12/11 03:04:27;;;;;;;;;;;4.70;99.90;;;;;;2585176;54;19935;31
2023/12/11 03:07:02;;;;;;;;;;;5.00;99.90;;;;;;2585430;54;19954;31
2023/12/11 03:09:36;;;;;;;;;;;1.90;99.90;;;;;;2585431;54;20810;31
2023/12/11 03:12:12;;;;;;;;;;;4.90;99.90;;;;;;2585242;54;19934;31
2023/12/11 03:14:45;;;;;;;;;;;4.90;99.90;;;;;;2585068;54;21801;31
2023/12/11 03:17:18;;;;;;;;;;;4.70;99.90;;;;;;2603575;47;19934;31
2023/12/11 03:19:52;;;;;;;;;;;5.00;99.90;;;;;;2585209;54;19935;31
2023/12/11 03:22:25;;;;;;;;;;;5.30;99.90;;;;;;2603798;47;19941;31
2023/12/11 03:24:58;;;;;;;;;;;5.00;99.90;;;;;;2585216;54;20440;31
2023/12/11 03:27:34;;;;;;;;;;;4.90;99.90;;;;;;2585165;54;20775;31
2023/12/11 03:30:08;;;;;;;;;;;4.80;99.90;;;;;;2585492;54;19935;31
2023/12/11 03:32:41;;;;;;;;;;;4.80;99.90;;;;;;2585324;54;20778;31
2023/12/11 03:35:13;;;;;;;;;;;4.80;99.90;;;;;;2584667;54;20021;31
2023/12/11 03:37:46;;;;;;;;;;;4.90;99.90;;;;;;2603659;47;20796;31
2023/12/11 03:40:20;;;;;;;;;;;4.80;99.90;;;;;;2603368;47;20707;31
2023/12/11 03:42:56;;;;;;;;;;;4.80;99.90;;;;;;2603282;47;20828;31
2023/12/11 03:45:30;;;;;;;;;;;4.80;99.90;;;;;;2584587;54;19961;31
2023/12/11 03:48:02;;;;;;;;;;;4.80;99.90;;;;;;2701714;39;20963;31
2023/12/11 03:50:35;;;;;;;;;;;4.70;99.90;;;;;;2585086;54;19938;31
2023/12/11 03:53:10;;;;;;;;;;;4.90;99.90;;;;;;2584954;54;20754;31
2023/12/11 03:55:42;;;;;;;;;;;4.70;99.90;;;;;;2585323;54;19990;31
2023/12/11 03:58:20;;;;;;;;;;;1.60;99.90;;;;;;2603547;47;20718;31
2023/12/11 04:00:53;;;;;;;;;;;4.70;99.90;;;;;;2584977;54;20703;31
2023/12/11 04:03:26;;;;;;;;;;;4.70;99.90;;;;;;2584929;54;19934;31
2023/12/11 04:05:58;;;;;;;;;;;5.00;99.90;;;;;;2585066;54;19994;31
2023/12/11 04:08:33;;;;;;;;;;;4.70;99.90;;;;;;2584771;54;19935;31
2023/12/11 04:11:06;;;;;;;;;;;4.80;99.90;;;;;;2584535;54;20989;31
2023/12/11 04:13:42;;;;;;;;;;;4.80;99.90;;;;;;2584842;54;20065;31
2023/12/11 04:16:15;;;;;;;;;;;4.70;99.90;;;;;;2585001;54;19934;31
2023/12/11 04:18:47;;;;;;;;;;;4.80;99.90;;;;;;2585433;54;20822;31
2023/12/11 04:21:21;;;;;;;;;;;4.70;99.90;;;;;;2585858;54;20890;31
2023/12/11 04:23:55;;;;;;;;;;;4.60;99.90;;;;;;2604538;46;19935;31
2023/12/11 04:26:28;;;;;;;;;;;4.90;99.90;;;;;;2586143;54;19941;31
2023/12/11 04:29:03;;;;;;;;;;;4.90;99.90;;;;;;2585829;54;19945;31
2023/12/11 04:31:38;;;;;;;;;;;4.80;99.90;;;;;;2585866;54;20842;31
2023/12/11 04:34:11;;;;;;;;;;;4.80;99.90;;;;;;2586119;54;20721;31
2023/12/11 04:36:45;;;;;;;;;;;4.90;99.90;;;;;;2585445;54;19998;31
2023/12/11 04:39:18;;;;;;;;;;;4.90;99.90;;;;;;2604533;46;20816;31
2023/12/11 04:41:51;;;;;;;;;;;4.90;99.90;;;;;;2702507;39;21021;31
2023/12/11 04:44:27;;;;;;;;;;;4.90;99.90;;;;;;2585465;54;20919;31
2023/12/11 04:46:59;;;;;;;;;;;4.80;99.90;;;;;;2604425;46;20809;31
2023/12/11 04:49:32;;;;;;;;;;;5.00;99.90;;;;;;2586090;54;19939;31
2023/12/11 04:52:05;;;;;;;;;;;5.10;99.90;;;;;;2585339;54;19941;31
2023/12/11 04:54:38;;;;;;;;;;;5.00;99.90;;;;;;2585742;54;20867;31
2023/12/11 04:57:11;;;;;;;;;;;5.10;99.90;;;;;;2585738;54;19935;31
2023/12/11 04:59:47;;;;;;;;;;;5.10;99.90;;;;;;2585782;54;19972;31
2023/12/11 05:02:19;;;;;;;;;;;5.10;99.90;;;;;;2604240;46;20673;31
2023/12/11 05:04:52;;;;;;;;;;;5.10;99.90;;;;;;2604358;46;20797;31
2023/12/11 05:07:25;;;;;;;;;;;5.10;99.90;;;;;;2585578;54;20795;31
2023/12/11 05:09:58;;;;;;;;;;;5.20;99.90;;;;;;2585713;54;19961;31
2023/12/11 05:12:30;;;;;;;;;;;5.30;99.90;;;;;;2586071;54;22364;31
2023/12/11 05:15:07;;;;;;;;;;;5.60;99.90;;;;;;2585368;54;20860;31
2023/12/11 05:17:40;;;;;;;;;;;5.00;99.90;;;;;;2585458;54;19989;31
2023/12/11 05:20:16;;;;;;;;;;;5.20;99.90;;;;;;2585438;54;19934;31
2023/12/11 05:22:48;;;;;;;;;;;5.20;99.90;;;;;;2604526;46;21817;31
2023/12/11 05:25:21;;;;;;;;;;;6.80;99.90;;;;;;2585219;54;20766;31
2023/12/11 05:27:54;;;;;;;;;;;5.30;99.90;;;;;;2585571;54;20816;31
2023/12/11 05:30:31;;;;;;;;;;;5.30;99.90;;;;;;2604231;46;20884;31
2023/12/11 05:33:07;;;;;;;;;;;5.40;99.90;;;;;;2585224;54;20771;31
2023/12/11 05:35:40;;;;;;;;;;;5.50;99.90;;;;;;2585434;54;19934;31
2023/12/11 05:38:12;;;;;;;;;;;5.60;99.90;;;;;;2585816;54;20823;31
2023/12/11 05:40:47;;;;;;;;;;;5.60;99.90;;;;;;2585615;54;20889;31
2023/12/11 05:43:20;;;;;;;;;;;5.60;99.90;;;;;;2585234;54;19965;31
2023/12/11 05:45:53;;;;;;;;;;;5.60;99.90;;;;;;2585800;54;19935;31
2023/12/11 05:48:28;;;;;;;;;;;5.80;99.90;;;;;;2586009;54;21032;31
2023/12/11 05:51:01;;;;;;;;;;;5.60;99.90;;;;;;2603602;46;19935;31
2023/12/11 06:05:21;;;;;;;;;;;5.80;99.90;;;;;;2585082;54;20744;31
2023/12/11 07:42:45;;;;;;;;;;;7.30;99.90;;;;;;2584010;54;19954;31
2023/12/11 07:56:56;;;;;;;;;;;7.00;99.90;;;;;;2585662;54;20814;31
2023/12/11 07:59:35;;;;;;;;;;;6.90;99.90;;;;;;2585676;54;20010;31
2023/12/11 08:02:08;;;;;;;;;;;6.90;99.90;;;;;;2603985;46;19935;31
2023/12/11 08:04:41;;;;;;;;;;;6.90;99.90;;;;;;2684212;39;22246;31
2023/12/11 08:07:14;;;;;;;;;;;7.20;99.90;;;;;;2586111;54;19961;31
2023/12/11 08:09:47;;;;;;;;;;;6.70;99.90;;;;;;2604297;46;21834;31
2023/12/11 08:12:25;;;;;;;;;;;9.00;99.90;;;;;;2585627;54;20703;31
2023/12/11 08:14:58;;;;;;;;;;;6.70;99.90;;;;;;2603872;46;20822;31
2023/12/11 08:20:36;;;;;;;;;;;6.70;99.90;;;;;;2585464;54;19935;31
2023/12/11 08:34:55;;;;;;;;;;;6.70;99.90;;;;;;2603273;54;19934;31
2023/12/11 10:12:02;;;;;;;;;;;8.50;99.90;;;;;;2584821;54;19942;31
2023/12/11 10:14:37;;;;;;;;;;;8.80;99.90;;;;;;2585358;54;20022;31
2023/12/11 10:17:18;;;;;;;;;;;9.10;99.90;;;;;;2603683;46;19934;31
2023/12/11 10:19:51;;;;;;;;;;;9.00;99.90;;;;;;2585018;54;20766;31
2023/12/11 10:22:30;;;;;;;;;;;9.00;99.90;;;;;;2584829;54;20776;31
2023/12/11 10:25:03;;;;;;;;;;;9.00;99.90;;;;;;2603844;46;19950;31
2023/12/11 10:27:39;;;;;;;;;;;6.20;99.90;;;;;;2585209;54;20792;31
2023/12/11 10:30:12;;;;;;;;;;;8.90;99.90;;;;;;2585215;54;19941;31
2023/12/11 10:32:45;;;;;;;;;;;8.80;99.90;;;;;;2603810;46;19934;31
2023/12/11 10:35:25;;;;;;;;;;;8.70;99.90;;;;;;2584955;54;19993;31
2023/12/11 10:38:04;;;;;;;;;;;8.60;99.90;;;;;;2603792;46;19960;31
2023/12/11 10:40:39;;;;;;;;;;;8.50;99.90;;;;;;2585213;54;19935;31
2023/12/11 10:43:15;;;;;;;;;;;8.60;99.90;;;;;;2603729;46;20880;31
2023/12/11 10:45:48;;;;;;;;;;;9.00;99.90;;;;;;2584870;54;20881;31
2023/12/11 10:48:24;;;;;;;;;;;9.80;99.90;;;;;;2603609;46;20786;31
2023/12/11 10:50:57;;;;;;;;;;;8.50;99.90;;;;;;2584913;54;19935;31
2023/12/11 10:53:30;;;;;;;;;;;8.70;99.90;;;;;;2603597;46;19934;31
2023/12/11 10:56:03;;;;;;;;;;;8.70;99.90;;;;;;2584900;54;20734;31
2023/12/11 10:58:38;;;;;;;;;;;8.80;99.90;;;;;;2584872;54;20781;31
2023/12/11 11:01:14;;;;;;;;;;;9.80;99.90;;;;;;2603688;46;19934;31
2023/12/11 11:03:49;;;;;;;;;;;9.10;99.90;;;;;;2585391;54;20044;31
2023/12/11 11:06:22;;;;;;;;;;;9.10;99.90;;;;;;2584824;54;20691;31
2023/12/11 11:08:56;;;;;;;;;;;9.20;99.90;;;;;;2584781;54;20797;31
2023/12/11 11:11:37;;;;;;;;;;;9.80;99.90;;;;;;2603236;46;19950;31
2023/12/11 11:14:23;;;;;;;;;;;9.20;99.90;;;;;;2585080;54;19935;31
2023/12/11 11:16:56;;;;;;;;;;;9.20;99.90;;;;;;2585010;54;19965;31
2023/12/11 11:19:30;;;;;;;;;;;9.20;99.90;;;;;;2585237;54;19947;31
2023/12/11 11:22:20;;;;;;;;;;;9.20;99.90;;;;;;2584997;54;20768;31
2023/12/11 11:25:24;;;;;;;;;;;9.20;99.90;;;;;;2603875;47;20704;31
2023/12/11 11:28:01;;;;;;;;;;;9.20;99.90;;;;;;2585363;54;20021;31
2023/12/11 11:30:53;;;;;;;;;;;9.20;99.90;;;;;;2585968;54;20678;31
2023/12/11 11:33:30;;;;;;;;;;;9.20;99.90;;;;;;2586136;54;19961;31
2023/12/11 11:51:22;;;;;;;;;;;9.20;99.90;;;;;;2584621;54;20804;31
2023/12/11 12:06:10;;;;;;;;;;;9.40;99.90;;;;;;2585544;54;19935;31
2023/12/11 12:08:44;;;;;;;;;;;9.50;99.90;;;;;;2584667;54;20001;31
2023/12/11 12:11:19;;;;;;;;;;;9.30;99.90;;;;;;2604185;46;20827;31
2023/12/11 12:16:55;;;;;;;;;;;9.40;99.90;;;;;;2604743;54;19935;31
2023/12/11 12:19:31;;;;;;;;;;;9.30;99.90;;;;;;2585608;54;19934;31
2023/12/11 12:22:12;;;;;;;;;;;9.30;99.90;;;;;;2604067;46;20759;31
2023/12/11 12:24:48;;;;;;;;;;;9.40;99.90;;;;;;2585811;54;20734;31
2023/12/11 12:27:22;;;;;;;;;;;9.40;99.90;;;;;;2585891;54;19935;31
2023/12/11 12:29:55;;;;;;;;;;;9.40;99.90;;;;;;2603866;46;19941;31
2023/12/11 12:32:28;;;;;;;;;;;9.50;99.90;;;;;;2585472;54;19934;31
2023/12/11 12:43:54;;;;;;;;;;;9.60;99.90;;;;;;2604013;54;20745;31
2023/12/11 12:46:31;;;;;;;;;;;9.50;99.90;;;;;;2585824;54;20004;31
2023/12/11 12:49:09;;;;;;;;;;;9.50;99.90;;;;;;2585091;54;20844;31
2023/12/11 13:03:20;;;;;;;;;;;9.20;99.90;;;;;;2603808;46;20040;31
2023/12/11 13:20:37;;;;;;;;;;;9.10;99.90;;;;;;2603194;54;19934;31
2023/12/11 14:02:32;;;;;;;;;;;8.50;99.90;;;;;;2585242;54;20810;31
2023/12/11 14:19:59;;;;;;;;;;;8.40;99.90;;;;;;2584858;54;19954;31
2023/12/11 14:25:37;;;;;;;;;;;10.00;99.90;;;;;;2585367;54;20722;31
2023/12/11 14:28:12;;;;;;;;;;;8.30;99.90;;;;;;2683699;39;20944;31
2023/12/11 14:45:31;;;;;;;;;;;8.10;99.90;;;;;;2585019;54;19934;31
2023/12/11 16:09:54;;;;;;;;;;;8.00;99.90;;;;;;2602403;54;19938;31
2023/12/11 16:12:27;;;;;;;;;;;8.10;99.90;;;;;;2603858;47;19935;31
2023/12/11 16:15:01;;;;;;;;;;;8.10;99.90;;;;;;2604560;46;20810;31
2023/12/11 16:17:35;;;;;;;;;;;8.00;99.90;;;;;;2604231;46;20822;31
2023/12/11 16:20:08;;;;;;;;;;;8.10;99.90;;;;;;2585573;54;19934;31
2023/12/11 16:22:41;;;;;;;;;;;8.20;99.90;;;;;;2585871;54;19986;31
2023/12/11 16:25:19;;;;;;;;;;;8.20;99.90;;;;;;2585855;54;19935;31
2023/12/11 16:27:52;;;;;;;;;;;8.10;99.90;;;;;;2604287;46;20036;31
2023/12/11 16:30:26;;;;;;;;;;;8.10;99.90;;;;;;2585543;54;19962;31
2023/12/11 16:33:00;;;;;;;;;;;8.20;99.90;;;;;;2604219;46;20698;31
2023/12/11 16:35:32;;;;;;;;;;;8.10;99.90;;;;;;2585787;54;20848;31
2023/12/11 16:38:05;;;;;;;;;;;9.40;99.90;;;;;;2604198;46;19986;31
2023/12/11 16:40:39;;;;;;;;;;;8.20;99.90;;;;;;2585225;54;19935;31
2023/12/11 16:43:12;;;;;;;;;;;8.10;99.90;;;;;;2585863;54;19934;31
2023/12/11 18:01:45;;;;;;;;;;;7.80;99.90;;;;;;2583958;54;19945;31
2023/12/11 18:15:16;;;;;;;;;;;7.10;99.90;;;;;;2603797;46;19938;31
2023/12/11 18:17:52;;;;;;;;;;;8.10;99.90;;;;;;2608450;39;20146;31
2023/12/11 18:20:25;;;;;;;;;;;8.10;99.90;;;;;;2584637;54;19958;31
2023/12/11 18:28:56;;;;;;;;;;;8.00;99.90;;;;;;2585314;54;20795;31
2023/12/11 19:12:26;;;;;;;;;;;7.90;99.90;;;;;;2584722;54;20824;31
2023/12/11 19:15:01;;;;;;;;;;;7.90;99.90;;;;;;2585254;54;19935;31
2023/12/11 19:20:30;;;;;;;;;;;7.80;99.90;;;;;;2604980;54;19942;31
2023/12/11 19:23:04;;;;;;;;;;;7.80;99.90;;;;;;2603734;47;19993;31
2023/12/11 19:25:37;;;;;;;;;;;7.80;99.90;;;;;;2585244;54;22315;31
2023/12/11 19:28:10;;;;;;;;;;;7.80;99.90;;;;;;2603752;47;19935;31
2023/12/11 19:30:45;;;;;;;;;;;7.80;99.90;;;;;;2603782;47;19946;31
2023/12/11 19:33:18;;;;;;;;;;;7.80;99.90;;;;;;2585241;54;19935;31
2023/12/11 19:35:51;;;;;;;;;;;7.90;99.90;;;;;;2585236;54;20802;31
2023/12/11 19:38:24;;;;;;;;;;;7.80;99.90;;;;;;2585119;54;20747;31
2023/12/11 19:40:57;;;;;;;;;;;7.80;99.90;;;;;;2584987;54;20822;31
2023/12/11 19:43:31;;;;;;;;;;;9.80;99.90;;;;;;2603823;47;20802;31
2023/12/11 19:46:09;;;;;;;;;;;7.80;99.90;;;;;;2585281;54;20802;31
2023/12/11 19:48:42;;;;;;;;;;;7.80;99.90;;;;;;2604350;46;19935;31
2023/12/11 19:51:17;;;;;;;;;;;7.80;99.90;;;;;;2585916;54;19961;31
2023/12/11 19:53:51;;;;;;;;;;;7.90;99.90;;;;;;2604357;46;19977;31
2023/12/11 19:56:25;;;;;;;;;;;7.10;99.90;;;;;;2585965;54;20020;31
2023/12/11 19:58:58;;;;;;;;;;;7.90;99.90;;;;;;2585945;54;19940;31
2023/12/11 20:01:35;;;;;;;;;;;7.80;99.90;;;;;;2585609;54;20671;31
2023/12/11 20:04:10;;;;;;;;;;;7.70;99.90;;;;;;2585811;54;20841;31
2023/12/11 20:06:43;;;;;;;;;;;9.50;99.90;;;;;;2604070;46;19934;31
2023/12/11 20:09:18;;;;;;;;;;;7.70;99.90;;;;;;2585771;54;20906;31
2023/12/11 20:11:51;;;;;;;;;;;7.80;99.90;;;;;;2604152;46;19960;31
2023/12/11 20:14:41;;;;;;;;;;;7.80;99.90;;;;;;2585919;54;20889;31
2023/12/11 20:34:30;;;;;;;;;;;7.60;99.90;;;;;;2604440;46;20797;31
